Time;durP1;ratioP1;P1;durP2;ratioP2;P2;SDS_P1;SDS_P2;PMS_P1;PMS_P2;Temp;Humidity;BMP_temperature;BMP_pressure;BME280_temperature;BME280_humidity;BME280_pressure;Samples;Min_cycle;Max_cycle;Signal;HPM_P1;HPM_P2
2022/05/31 00:02:21;;;;;;;0.90;0.88;;;13.10;99.90;;;;;;5093385;28;20031;-73
2022/05/31 00:04:48;;;;;;;1.55;0.43;;;13.10;99.90;;;;;;5086636;28;20425;-73
2022/05/31 00:07:14;;;;;;;1.88;0.95;;;13.00;99.90;;;;;;5072588;28;20031;-73
2022/05/31 00:09:40;;;;;;;0.00;0.00;;;13.10;99.90;;;;;;5073276;28;20426;-73
2022/05/31 00:12:07;;;;;;;0.00;0.00;;;13.10;99.90;;;;;;5072364;28;20109;-73
2022/05/31 00:14:33;;;;;;;0.25;0.25;;;13.10;99.90;;;;;;5075106;28;20047;-73
2022/05/31 00:17:00;;;;;;;0.47;0.25;;;13.20;99.90;;;;;;5078460;28;20460;-73
2022/05/31 00:19:26;;;;;;;0.30;0.30;;;13.30;99.90;;;;;;5091289;28;20047;-73
2022/05/31 00:21:56;;;;;;;0.00;0.00;;;13.40;99.90;;;;;;5085944;28;20027;-73
2022/05/31 00:24:22;;;;;;;0.03;0.03;;;13.50;99.90;;;;;;5067746;28;20028;-74
2022/05/31 00:26:49;;;;;;;0.65;0.10;;;13.60;99.90;;;;;;5092627;28;20027;-73
2022/05/31 00:29:16;;;;;;;0.00;0.00;;;13.80;99.90;;;;;;5092447;28;20024;-73
2022/05/31 00:31:46;;;;;;;0.00;0.00;;;14.10;99.90;;;;;;5092672;28;20028;-73
2022/05/31 00:34:14;;;;;;;0.00;0.00;;;14.40;99.90;;;;;;5088467;28;20107;-73
2022/05/31 00:36:43;;;;;;;0.00;0.00;;;14.70;99.90;;;;;;5076189;28;20380;-71
2022/05/31 00:39:09;;;;;;;0.57;0.57;;;14.80;99.90;;;;;;5083566;28;20537;-75
2022/05/31 00:41:36;;;;;;;2.28;1.45;;;14.80;99.90;;;;;;5093019;28;20464;-76
2022/05/31 00:44:06;;;;;;;9.57;2.40;;;14.80;99.90;;;;;;5065972;28;20028;-73
2022/05/31 00:46:53;;;;;;;0.55;0.43;;;14.80;99.90;;;;;;5094144;28;20059;-72
2022/05/31 00:49:33;;;;;;;0.00;0.00;;;15.10;99.90;;;;;;5086120;28;20025;-72
2022/05/31 00:52:05;;;;;;;0.30;0.13;;;15.60;99.90;;;;;;5091516;28;20071;-72
2022/05/31 00:54:36;;;;;;;2.03;0.63;;;16.20;99.90;;;;;;5095449;28;20116;-72
2022/05/31 00:57:02;;;;;;;0.00;0.00;;;16.30;99.90;;;;;;5087416;28;20372;-74
2022/05/31 00:59:43;;;;;;;1.60;1.08;;;16.30;99.90;;;;;;5090895;28;20095;-72
2022/05/31 01:02:11;;;;;;;1.15;0.80;;;15.60;99.90;;;;;;5073777;28;20053;-73
2022/05/31 01:04:49;;;;;;;1.58;1.13;;;15.10;99.90;;;;;;5092217;28;20032;-73
2022/05/31 01:07:16;;;;;;;1.25;0.45;;;14.90;99.90;;;;;;5083172;28;20035;-73
2022/05/31 01:09:42;;;;;;;0.82;0.50;;;14.90;99.90;;;;;;5083464;28;20515;-73
2022/05/31 01:12:08;;;;;;;0.38;0.32;;;14.80;99.90;;;;;;5095602;28;20028;-73
2022/05/31 01:14:35;;;;;;;1.48;0.63;;;15.10;99.90;;;;;;5095760;28;20073;-73
2022/05/31 01:17:05;;;;;;;0.88;0.30;;;15.70;99.90;;;;;;5088694;28;20025;-73
2022/05/31 01:22:16;;;;;;;0.00;0.00;;;16.30;99.90;;;;;;5083112;28;20495;-73
2022/05/31 01:24:54;;;;;;;0.73;0.70;;;16.20;99.90;;;;;;5094528;28;20028;-73
2022/05/31 01:27:44;;;;;;;0.00;0.00;;;16.00;99.90;;;;;;5091900;28;20044;-72
2022/05/31 01:30:11;;;;;;;0.65;0.47;;;16.10;99.90;;;;;;5086798;28;20086;-72
2022/05/31 01:32:43;;;;;;;3.15;0.88;;;15.90;99.90;;;;;;5076328;28;20060;-72
2022/05/31 01:35:17;;;;;;;0.32;0.10;;;15.60;99.90;;;;;;5092697;28;20376;-72
2022/05/31 01:37:58;;;;;;;0.03;0.00;;;15.20;99.90;;;;;;5093937;28;20028;-72
2022/05/31 01:40:40;;;;;;;0.47;0.47;;;15.20;99.90;;;;;;5083826;28;20095;-72
2022/05/31 01:43:06;;;;;;;2.65;0.45;;;15.30;99.90;;;;;;5087129;28;20047;-72
2022/05/31 01:46:03;;;;;;;0.82;0.40;;;15.40;99.90;;;;;;5086436;28;20040;-73
2022/05/31 01:48:31;;;;;;;0.38;0.20;;;15.40;99.90;;;;;;5088589;28;20051;-74
2022/05/31 01:50:58;;;;;;;0.00;0.00;;;15.40;99.90;;;;;;5094360;28;20079;-73
2022/05/31 01:53:24;;;;;;;0.00;0.00;;;15.50;99.90;;;;;;5090021;28;20029;-72
2022/05/31 01:55:50;;;;;;;0.00;0.00;;;15.90;99.90;;;;;;5087731;28;20036;-72
2022/05/31 01:58:25;;;;;;;3.20;1.38;;;16.50;99.90;;;;;;5083912;28;20020;-72
2022/05/31 02:00:52;;;;;;;0.85;0.32;;;16.80;99.90;;;;;;5085259;28;20536;-72
2022/05/31 02:03:20;;;;;;;1.13;0.50;;;17.30;99.90;;;;;;5086076;28;20423;-73
2022/05/31 02:05:49;;;;;;;1.85;0.60;;;17.70;99.90;;;;;;5084139;28;20385;-72
2022/05/31 02:08:17;;;;;;;0.75;0.50;;;17.90;99.90;;;;;;5087080;28;20059;-72
2022/05/31 02:10:44;;;;;;;0.95;0.52;;;18.10;99.90;;;;;;5088264;28;20039;-73
2022/05/31 02:13:11;;;;;;;0.98;0.75;;;18.20;99.90;;;;;;5082866;28;20044;-72
2022/05/31 02:15:37;;;;;;;0.00;0.00;;;18.20;99.90;;;;;;5094366;28;20368;-72
2022/05/31 02:18:04;;;;;;;0.00;0.00;;;18.60;99.90;;;;;;5088759;28;20012;-72
2022/05/31 02:20:30;;;;;;;0.00;0.00;;;19.10;99.90;;;;;;5087112;28;20022;-74
2022/05/31 02:22:56;;;;;;;0.38;0.28;;;19.80;99.90;;;;;;5090097;28;20031;-73
2022/05/31 02:25:22;;;;;;;17.88;10.13;;;20.50;99.90;;;;;;5091110;28;20026;-73
2022/05/31 02:27:48;;;;;;;0.00;0.00;;;20.70;99.90;;;;;;5082292;28;20074;-73
2022/05/31 02:30:17;;;;;;;0.00;0.00;;;21.90;99.90;;;;;;5084207;28;20464;-74
2022/05/31 02:32:43;;;;;;;0.98;0.43;;;23.00;99.90;;;;;;5084911;28;20028;-73
2022/05/31 02:35:11;;;;;;;0.00;0.00;;;23.80;99.50;;;;;;5082369;28;20111;-73
2022/05/31 02:37:39;;;;;;;0.00;0.00;;;23.20;90.40;;;;;;5081762;28;20107;-74
2022/05/31 02:40:07;;;;;;;0.00;0.00;;;23.90;95.00;;;;;;5084556;28;20024;-73
2022/05/31 02:42:36;;;;;;;0.00;0.00;;;24.40;91.20;;;;;;5086388;28;20465;-73
2022/05/31 02:45:05;;;;;;;0.93;0.47;;;23.80;89.80;;;;;;5081245;28;20036;-73
2022/05/31 02:47:31;;;;;;;0.55;0.52;;;23.10;94.20;;;;;;5085560;28;20021;-72
2022/05/31 02:49:57;;;;;;;0.00;0.00;;;21.40;99.90;;;;;;5085603;28;20028;-72
2022/05/31 02:52:23;;;;;;;2.05;1.95;;;20.80;99.90;;;;;;5086809;28;21238;-74
2022/05/31 02:54:49;;;;;;;0.17;0.17;;;21.40;99.90;;;;;;5083826;28;20172;-74
2022/05/31 02:57:18;;;;;;;0.00;0.00;;;22.10;99.90;;;;;;5081867;28;20107;-75
2022/05/31 02:59:44;;;;;;;0.00;0.00;;;22.50;99.90;;;;;;5082315;28;20024;-72
2022/05/31 03:02:10;;;;;;;0.50;0.47;;;23.40;96.00;;;;;;5079006;28;20047;-74
2022/05/31 03:04:36;;;;;;;0.00;0.00;;;23.20;90.30;;;;;;5080396;28;20050;-74
2022/05/31 03:07:03;;;;;;;0.00;0.00;;;22.80;90.80;;;;;;5081105;28;20070;-74
2022/05/31 03:09:31;;;;;;;0.57;0.57;;;22.70;98.70;;;;;;5079778;28;20044;-73
2022/05/31 03:12:01;;;;;;;0.00;0.00;;;22.70;90.70;;;;;;5087275;28;20421;-73
2022/05/31 03:14:42;;;;;;;0.00;0.00;;;22.40;93.70;;;;;;5082404;28;20063;-74
2022/05/31 03:17:17;;;;;;;0.00;0.00;;;22.70;96.20;;;;;;5080143;28;20028;-73
2022/05/31 03:20:01;;;;;;;0.08;0.08;;;23.30;92.70;;;;;;5076734;28;20325;-73
2022/05/31 03:22:31;;;;;;;0.00;0.00;;;24.00;86.90;;;;;;5079610;28;20028;-72
2022/05/31 03:25:09;;;;;;;0.00;0.00;;;23.90;79.70;;;;;;5083996;28;20059;-73
2022/05/31 03:27:36;;;;;;;0.00;0.00;;;23.90;83.90;;;;;;5058797;28;20052;-74
2022/05/31 03:30:04;;;;;;;0.00;0.00;;;24.30;83.40;;;;;;5076287;28;20135;-74
2022/05/31 03:32:32;;;;;;;0.00;0.00;;;23.30;86.70;;;;;;5080052;28;20051;-73
2022/05/31 03:34:58;;;;;;;1.25;1.00;;;23.30;90.90;;;;;;5079225;28;20039;-74
2022/05/31 03:37:24;;;;;;;0.03;0.03;;;23.30;90.40;;;;;;5081617;28;20085;-74
2022/05/31 03:39:50;;;;;;;0.00;0.00;;;21.80;99.90;;;;;;5079901;28;20029;-73
2022/05/31 03:42:16;;;;;;;0.00;0.00;;;20.60;99.90;;;;;;5081715;28;20023;-73
2022/05/31 03:44:42;;;;;;;0.00;0.00;;;20.80;99.90;;;;;;5079168;28;20032;-75
2022/05/31 03:47:08;;;;;;;0.25;0.25;;;20.70;99.90;;;;;;5081280;28;20035;-73
2022/05/31 03:49:35;;;;;;;4.03;2.05;;;20.70;99.90;;;;;;5081175;28;20032;-74
2022/05/31 03:52:02;;;;;;;0.10;0.10;;;20.50;99.90;;;;;;5079113;28;20052;-74
2022/05/31 03:54:28;;;;;;;0.00;0.00;;;19.90;99.90;;;;;;5076719;28;20484;-73
2022/05/31 03:56:55;;;;;;;0.05;0.05;;;20.30;99.90;;;;;;5080463;28;20024;-74
2022/05/31 03:59:21;;;;;;;2.55;0.73;;;20.70;99.90;;;;;;5059210;28;20116;-73
2022/05/31 04:01:47;;;;;;;0.98;0.98;;;20.80;99.90;;;;;;5080492;28;20038;-74
2022/05/31 04:04:13;;;;;;;3.78;0.95;;;20.70;99.90;;;;;;5079951;28;20032;-73
2022/05/31 04:06:39;;;;;;;0.00;0.00;;;19.80;99.90;;;;;;5063313;28;20027;-74
2022/05/31 04:09:06;;;;;;;0.00;0.00;;;19.70;99.90;;;;;;5082090;28;20020;-72
2022/05/31 04:11:32;;;;;;;1.33;1.23;;;19.50;99.90;;;;;;5085043;28;20555;-73
2022/05/31 04:13:58;;;;;;;0.00;0.00;;;18.60;99.90;;;;;;5081469;28;20036;-72
2022/05/31 04:16:26;;;;;;;0.40;0.40;;;19.10;99.90;;;;;;5082425;28;20054;-72
2022/05/31 04:18:53;;;;;;;0.00;0.00;;;19.60;99.90;;;;;;5079347;28;20261;-74
2022/05/31 04:21:19;;;;;;;2.40;2.03;;;19.60;99.90;;;;;;5074940;28;20024;-73
2022/05/31 04:23:59;;;;;;;0.47;0.47;;;19.70;99.90;;;;;;5071272;28;20064;-73
2022/05/31 04:26:27;;;;;;;0.00;0.00;;;19.70;99.90;;;;;;5073370;28;20024;-73
2022/05/31 04:28:53;;;;;;;0.00;0.00;;;19.70;99.90;;;;;;5073506;28;20122;-74
2022/05/31 04:31:19;;;;;;;0.00;0.00;;;19.70;99.90;;;;;;5073644;28;20067;-74
2022/05/31 04:33:46;;;;;;;0.00;0.00;;;20.30;99.90;;;;;;5079746;28;20036;-73
2022/05/31 04:36:14;;;;;;;0.00;0.00;;;20.30;99.90;;;;;;5078027;28;20091;-71
2022/05/31 04:38:41;;;;;;;2.17;2.08;;;20.00;99.90;;;;;;5084863;28;20016;-74
2022/05/31 04:41:17;;;;;;;0.00;0.00;;;20.10;99.90;;;;;;5080546;28;20032;-74
2022/05/31 04:43:43;;;;;;;0.30;0.10;;;20.40;99.90;;;;;;5082509;28;20035;-74
2022/05/31 04:46:18;;;;;;;0.65;0.65;;;20.80;99.90;;;;;;5079997;28;20032;-74
2022/05/31 04:48:45;;;;;;;0.50;0.50;;;20.70;99.90;;;;;;5077100;28;20024;-72
2022/05/31 04:51:12;;;;;;;1.50;0.80;;;19.90;99.90;;;;;;5083561;28;20161;-73
2022/05/31 04:53:40;;;;;;;0.00;0.00;;;19.90;99.90;;;;;;5082346;28;20031;-73
2022/05/31 04:56:08;;;;;;;1.85;1.75;;;19.40;99.90;;;;;;5083991;28;20028;-73
2022/05/31 04:58:34;;;;;;;1.45;1.35;;;19.90;99.90;;;;;;5085814;28;20065;-73
2022/05/31 05:01:06;;;;;;;0.00;0.00;;;19.00;99.90;;;;;;5085124;28;20016;-74
2022/05/31 05:03:36;;;;;;;0.00;0.00;;;19.00;99.90;;;;;;5082225;28;20638;-74
2022/05/31 05:06:04;;;;;;;0.00;0.00;;;19.20;99.90;;;;;;5079329;28;20534;-74
2022/05/31 05:08:32;;;;;;;0.00;0.00;;;19.40;99.90;;;;;;5075891;28;20028;-73
2022/05/31 05:11:03;;;;;;;0.75;0.75;;;19.50;99.90;;;;;;5076861;28;20495;-74
2022/05/31 05:13:29;;;;;;;0.00;0.00;;;20.20;99.90;;;;;;5077665;28;20488;-74
2022/05/31 05:15:56;;;;;;;0.22;0.22;;;20.60;99.90;;;;;;5081470;28;21426;-74
2022/05/31 05:18:23;;;;;;;0.22;0.22;;;20.50;99.90;;;;;;5063578;28;20558;-73
2022/05/31 05:20:49;;;;;;;1.40;0.98;;;20.10;99.90;;;;;;5075695;28;20440;-74
2022/05/31 05:23:15;;;;;;;0.10;0.10;;;19.70;99.90;;;;;;5080667;28;20023;-75
2022/05/31 05:25:46;;;;;;;0.32;0.30;;;19.40;99.90;;;;;;5081873;28;20032;-74
2022/05/31 05:30:56;;;;;;;3.88;3.13;;;20.00;99.90;;;;;;5078978;28;20133;-73
2022/05/31 05:33:23;;;;;;;2.25;2.05;;;20.10;99.90;;;;;;5083414;28;20036;-75
2022/05/31 05:35:50;;;;;;;2.15;1.17;;;20.00;99.90;;;;;;5080629;28;20515;-74
2022/05/31 05:38:16;;;;;;;1.35;1.15;;;20.10;99.90;;;;;;5081497;28;20024;-74
2022/05/31 05:40:42;;;;;;;0.00;0.00;;;19.70;99.90;;;;;;5078856;28;20024;-73
2022/05/31 05:43:09;;;;;;;0.00;0.00;;;20.00;99.90;;;;;;5080123;28;20413;-74
2022/05/31 05:45:36;;;;;;;4.30;4.07;;;20.60;99.90;;;;;;5083263;28;20463;-73
2022/05/31 05:48:03;;;;;;;0.55;0.47;;;20.20;99.90;;;;;;5083598;28;20031;-74
2022/05/31 05:50:29;;;;;;;0.10;0.10;;;19.60;99.90;;;;;;5083587;28;20127;-73
2022/05/31 05:53:02;;;;;;;7.68;4.10;;;20.00;99.90;;;;;;5083175;28;20055;-75
2022/05/31 05:55:28;;;;;;;2.05;1.50;;;19.50;99.90;;;;;;5082125;28;20539;-73
2022/05/31 05:57:54;;;;;;;7.22;2.08;;;19.10;99.90;;;;;;5082445;28;21428;-74
2022/05/31 06:00:22;;;;;;;4.97;4.55;;;19.30;99.90;;;;;;5084441;28;20020;-74
2022/05/31 06:03:12;;;;;;;1.23;0.90;;;19.80;99.90;;;;;;5077646;28;20121;-74
2022/05/31 06:05:39;;;;;;;3.63;3.33;;;19.80;99.90;;;;;;5066280;28;20170;-74
2022/05/31 06:08:10;;;;;;;2.25;1.38;;;19.20;99.90;;;;;;5081672;28;20363;-74
2022/05/31 06:10:40;;;;;;;0.00;0.00;;;19.30;99.90;;;;;;5078376;28;20055;-75
2022/05/31 06:13:16;;;;;;;0.75;0.75;;;19.40;99.90;;;;;;5082921;28;20051;-74
2022/05/31 06:15:48;;;;;;;0.22;0.20;;;19.80;99.90;;;;;;5083264;28;20032;-74
2022/05/31 06:18:25;;;;;;;0.55;0.55;;;20.00;99.90;;;;;;5080983;28;20023;-75
2022/05/31 06:20:55;;;;;;;2.17;1.90;;;19.90;99.90;;;;;;5076990;28;20047;-73
2022/05/31 06:23:22;;;;;;;2.28;1.17;;;20.30;99.90;;;;;;5076086;28;20395;-74
2022/05/31 06:25:48;;;;;;;0.00;0.00;;;20.40;99.90;;;;;;5083945;28;20056;-76
2022/05/31 06:28:14;;;;;;;0.30;0.30;;;20.70;99.90;;;;;;5082191;28;20375;-74
2022/05/31 06:30:40;;;;;;;5.63;3.00;;;21.30;99.90;;;;;;5081037;28;20020;-74
2022/05/31 06:33:06;;;;;;;0.65;0.65;;;20.50;99.90;;;;;;5082672;28;20109;-76
2022/05/31 06:35:33;;;;;;;2.67;2.45;;;19.70;99.90;;;;;;5084390;28;20065;-74
2022/05/31 06:37:59;;;;;;;7.10;1.75;;;20.00;99.90;;;;;;5082909;28;20029;-73
2022/05/31 06:40:25;;;;;;;0.55;0.52;;;19.50;99.90;;;;;;5086709;28;20027;-72
2022/05/31 06:42:51;;;;;;;10.23;1.17;;;19.50;99.90;;;;;;5082464;28;20432;-75
2022/05/31 06:45:17;;;;;;;2.88;1.33;;;19.10;99.90;;;;;;5087066;28;20046;-74
2022/05/31 06:47:43;;;;;;;3.85;2.33;;;18.90;99.90;;;;;;5085809;28;20460;-73
2022/05/31 06:50:09;;;;;;;0.00;0.00;;;18.80;99.90;;;;;;5086476;28;20058;-74
2022/05/31 06:58:04;;;;;;;1.90;0.20;;;19.30;99.90;;;;;;5084442;28;20034;-73
2022/05/31 07:00:31;;;;;;;1.88;1.35;;;19.00;99.90;;;;;;5078542;28;20061;-74
2022/05/31 07:02:59;;;;;;;0.00;0.00;;;18.80;99.90;;;;;;5081730;28;20486;-74
2022/05/31 07:05:26;;;;;;;0.00;0.00;;;19.00;99.90;;;;;;5082707;28;20492;-75
2022/05/31 07:07:53;;;;;;;0.00;0.00;;;19.30;99.90;;;;;;5082534;28;20487;-74
2022/05/31 07:10:20;;;;;;;0.00;0.00;;;19.10;99.90;;;;;;5080932;28;20024;-73
2022/05/31 07:12:46;;;;;;;0.00;0.00;;;19.20;99.90;;;;;;5082554;28;20076;-73
2022/05/31 07:15:13;;;;;;;0.57;0.52;;;19.10;99.90;;;;;;5079049;28;20059;-75
2022/05/31 07:17:39;;;;;;;0.50;0.45;;;19.80;99.90;;;;;;5079940;28;20502;-72
2022/05/31 07:20:07;;;;;;;0.57;0.57;;;20.20;99.90;;;;;;5082473;28;20059;-74
2022/05/31 07:22:38;;;;;;;3.90;3.60;;;19.50;99.90;;;;;;5080813;28;20066;-74
2022/05/31 07:25:06;;;;;;;0.10;0.10;;;19.40;99.90;;;;;;5081285;28;20028;-73
2022/05/31 07:27:33;;;;;;;0.00;0.00;;;19.30;99.90;;;;;;5080717;28;20122;-73
2022/05/31 07:30:00;;;;;;;1.13;0.95;;;19.90;99.90;;;;;;5085449;28;20032;-73
2022/05/31 07:32:26;;;;;;;0.73;0.73;;;19.50;99.90;;;;;;5080683;28;20388;-73
2022/05/31 07:34:52;;;;;;;0.82;0.28;;;19.50;99.90;;;;;;5073787;28;20144;-74
2022/05/31 07:37:19;;;;;;;1.55;1.00;;;19.50;99.90;;;;;;5077746;28;20046;-74
2022/05/31 07:39:48;;;;;;;0.40;0.40;;;19.20;99.90;;;;;;5073285;28;20062;-73
2022/05/31 07:42:15;;;;;;;0.00;0.00;;;19.50;99.90;;;;;;5076438;28;20079;-73
2022/05/31 07:44:41;;;;;;;2.35;1.33;;;20.00;99.90;;;;;;5078926;28;20051;-75
2022/05/31 07:47:07;;;;;;;23.67;14.50;;;20.30;99.90;;;;;;5079569;28;20031;-73
2022/05/31 07:49:33;;;;;;;0.40;0.40;;;19.60;99.90;;;;;;5080776;28;20017;-74
2022/05/31 07:51:59;;;;;;;0.00;0.00;;;20.00;99.90;;;;;;5077330;28;20043;-74
2022/05/31 07:54:29;;;;;;;0.00;0.00;;;20.10;99.90;;;;;;5082786;28;20077;-74
2022/05/31 07:56:55;;;;;;;0.10;0.10;;;20.20;99.90;;;;;;5081676;28;20035;-74
2022/05/31 07:59:21;;;;;;;0.00;0.00;;;20.40;99.90;;;;;;5082892;28;20016;-75
2022/05/31 08:01:56;;;;;;;0.00;0.00;;;20.60;99.90;;;;;;5080830;28;20032;-74
2022/05/31 08:04:22;;;;;;;0.00;0.00;;;20.20;99.90;;;;;;5079370;28;20028;-72
2022/05/31 08:06:48;;;;;;;1.27;1.20;;;20.60;99.90;;;;;;5081418;28;20076;-76
2022/05/31 08:09:14;;;;;;;0.00;0.00;;;20.40;99.90;;;;;;5082512;28;20032;-73
2022/05/31 08:11:40;;;;;;;0.00;0.00;;;21.20;99.90;;;;;;5086270;28;20119;-73
2022/05/31 08:14:07;;;;;;;4.05;1.45;;;21.70;99.90;;;;;;5084924;28;20040;-74
2022/05/31 08:16:34;;;;;;;0.30;0.28;;;21.70;95.10;;;;;;5081246;28;20032;-76
2022/05/31 08:19:02;;;;;;;0.00;0.00;;;21.20;99.90;;;;;;5081805;28;20093;-74
2022/05/31 08:21:30;;;;;;;0.38;0.20;;;21.10;99.90;;;;;;5082367;28;20557;-73
2022/05/31 08:24:05;;;;;;;0.00;0.00;;;20.90;99.90;;;;;;5078961;28;20500;-75
2022/05/31 08:26:31;;;;;;;0.85;0.40;;;21.50;99.90;;;;;;5084829;28;20491;-73
2022/05/31 08:28:57;;;;;;;0.63;0.30;;;21.80;96.70;;;;;;5085930;28;20032;-74
2022/05/31 08:31:31;;;;;;;0.00;0.00;;;21.70;96.90;;;;;;5081441;28;20032;-73
2022/05/31 08:33:58;;;;;;;0.00;0.00;;;21.90;97.20;;;;;;5077906;28;20043;-72
2022/05/31 08:36:25;;;;;;;0.00;0.00;;;21.60;99.90;;;;;;5073944;28;20032;-75
2022/05/31 08:38:51;;;;;;;0.65;0.65;;;21.70;99.90;;;;;;5075862;28;20424;-72
2022/05/31 08:41:46;;;;;;;0.00;0.00;;;21.90;99.90;;;;;;5083347;28;20031;-75
2022/05/31 08:44:44;;;;;;;0.08;0.08;;;22.50;99.90;;;;;;5078466;28;20027;-75
2022/05/31 08:47:19;;;;;;;0.15;0.13;;;22.20;99.20;;;;;;5083033;28;20046;-73
2022/05/31 08:53:05;;;;;;;9.25;1.35;;;22.20;95.00;;;;;;5054681;28;20083;-73
2022/05/31 08:58:40;;;;;;;0.52;0.50;;;21.80;94.00;;;;;;5063944;28;20177;-73
2022/05/31 09:01:07;;;;;;;0.00;0.00;;;21.40;97.80;;;;;;5058399;28;20066;-73
2022/05/31 09:03:44;;;;;;;0.00;0.00;;;21.60;99.00;;;;;;5062481;28;20077;-75
2022/05/31 09:06:14;;;;;;;0.00;0.00;;;22.30;90.90;;;;;;5063546;28;20028;-74
2022/05/31 09:09:00;;;;;;;0.00;0.00;;;22.00;90.60;;;;;;5067161;28;20089;-73
2022/05/31 09:11:57;;;;;;;0.17;0.17;;;22.40;91.40;;;;;;5079804;28;20123;-75
2022/05/31 09:14:35;;;;;;;0.00;0.00;;;21.50;88.90;;;;;;5045018;28;20488;-74
2022/05/31 09:17:11;;;;;;;0.45;0.45;;;20.90;94.20;;;;;;5064775;28;20142;-73
2022/05/31 09:19:40;;;;;;;0.00;0.00;;;20.80;97.40;;;;;;5064605;28;20285;-75
2022/05/31 09:22:07;;;;;;;0.00;0.00;;;21.30;96.20;;;;;;5065320;28;20577;-75
2022/05/31 09:24:37;;;;;;;0.20;0.10;;;21.60;95.80;;;;;;5066462;28;20047;-74
2022/05/31 09:27:13;;;;;;;0.00;0.00;;;21.00;96.60;;;;;;5062478;28;20104;-74
2022/05/31 09:30:02;;;;;;;0.00;0.00;;;21.70;98.40;;;;;;5064369;28;20044;-75
2022/05/31 09:32:54;;;;;;;0.40;0.30;;;22.40;94.60;;;;;;5065941;28;20024;-75
2022/05/31 09:35:42;;;;;;;2.00;1.65;;;22.80;91.60;;;;;;5067691;28;20381;-74
2022/05/31 09:38:45;;;;;;;0.00;0.00;;;22.60;91.20;;;;;;5068526;28;20605;-75
2022/05/31 09:41:15;;;;;;;0.00;0.00;;;22.40;93.00;;;;;;5072342;28;20070;-73
2022/05/31 09:44:04;;;;;;;0.28;0.10;;;22.50;93.30;;;;;;5067367;28;20464;-74
2022/05/31 09:46:42;;;;;;;0.00;0.00;;;22.70;93.10;;;;;;5068377;28;20095;-75
2022/05/31 09:49:39;;;;;;;0.08;0.08;;;22.10;94.50;;;;;;5061135;28;20028;-75
2022/05/31 09:52:30;;;;;;;6.57;6.22;;;22.10;94.30;;;;;;5079842;28;20554;-75
2022/05/31 09:58:08;;;;;;;0.00;0.00;;;22.50;94.70;;;;;;5089605;28;20526;-74
2022/05/31 10:00:36;;;;;;;0.68;0.10;;;22.00;92.30;;;;;;5090179;28;20052;-74
2022/05/31 10:03:13;;;;;;;0.00;0.00;;;22.00;93.50;;;;;;5084936;28;20054;-74
2022/05/31 10:05:42;;;;;;;0.00;0.00;;;21.90;94.10;;;;;;5083374;28;20035;-74
2022/05/31 10:08:15;;;;;;;1.38;1.30;;;22.30;92.00;;;;;;5084181;28;20028;-74
2022/05/31 10:10:48;;;;;;;0.00;0.00;;;22.50;89.70;;;;;;5085716;28;20042;-75
2022/05/31 10:13:42;;;;;;;0.30;0.30;;;22.30;89.50;;;;;;5084696;28;20107;-75
2022/05/31 10:16:18;;;;;;;0.00;0.00;;;22.00;90.20;;;;;;5085003;28;20072;-77
2022/05/31 10:19:10;;;;;;;0.00;0.00;;;22.10;90.60;;;;;;5082271;28;20399;-74
2022/05/31 10:21:40;;;;;;;0.00;0.00;;;21.60;92.20;;;;;;5078180;28;20385;-75
2022/05/31 10:24:16;;;;;;;0.00;0.00;;;21.60;95.00;;;;;;5079432;28;20108;-76
2022/05/31 10:26:44;;;;;;;0.00;0.00;;;21.90;94.40;;;;;;5080408;28;20029;-76
2022/05/31 10:29:23;;;;;;;0.00;0.00;;;22.10;94.40;;;;;;5081693;28;20024;-76
2022/05/31 10:31:50;;;;;;;0.00;0.00;;;22.30;91.60;;;;;;5079335;28;20028;-76
2022/05/31 10:34:40;;;;;;;0.00;0.00;;;22.40;94.00;;;;;;5085556;28;20046;-77
2022/05/31 10:37:22;;;;;;;0.00;0.00;;;22.80;91.50;;;;;;5083504;28;20494;-76
2022/05/31 10:40:06;;;;;;;0.00;0.00;;;22.90;91.00;;;;;;5084613;28;20549;-75
2022/05/31 10:42:36;;;;;;;0.00;0.00;;;23.00;91.00;;;;;;5086508;28;20062;-75
2022/05/31 10:45:05;;;;;;;0.00;0.00;;;22.60;92.20;;;;;;5080350;28;20031;-74
2022/05/31 10:47:31;;;;;;;0.38;0.38;;;22.90;90.10;;;;;;5085954;28;20611;-76
2022/05/31 10:49:57;;;;;;;0.00;0.00;;;23.10;89.20;;;;;;5085925;28;20476;-74
2022/05/31 10:53:06;;;;;;;0.00;0.00;;;23.20;90.00;;;;;;5086386;28;20388;-76
2022/05/31 10:55:43;;;;;;;0.00;0.00;;;23.10;87.20;;;;;;5080330;28;20039;-73
2022/05/31 10:58:32;;;;;;;0.32;0.32;;;23.00;89.40;;;;;;5079470;28;20032;-74
2022/05/31 11:01:37;;;;;;;0.00;0.00;;;23.40;87.60;;;;;;5081418;28;20119;-76
2022/05/31 11:04:21;;;;;;;0.08;0.08;;;23.30;86.80;;;;;;5070063;28;20036;-74
2022/05/31 11:07:27;;;;;;;0.00;0.00;;;23.50;87.70;;;;;;5080071;28;20032;-74
2022/05/31 11:12:56;;;;;;;0.00;0.00;;;23.30;85.50;;;;;;5088663;28;20857;-73
2022/05/31 11:15:57;;;;;;;0.00;0.00;;;23.10;86.30;;;;;;5082482;28;20044;-74
2022/05/31 11:18:34;;;;;;;0.00;0.00;;;22.80;89.30;;;;;;5084396;28;20028;-75
2022/05/31 11:21:09;;;;;;;0.00;0.00;;;22.50;90.00;;;;;;5087131;28;20032;-74
2022/05/31 11:24:06;;;;;;;0.10;0.10;;;22.50;90.90;;;;;;5087057;28;20108;-74
2022/05/31 11:26:44;;;;;;;0.28;0.20;;;22.70;90.00;;;;;;5084111;28;20024;-74
2022/05/31 11:29:19;;;;;;;0.00;0.00;;;22.60;89.60;;;;;;5086211;28;20511;-75
2022/05/31 11:32:07;;;;;;;0.00;0.00;;;22.80;87.20;;;;;;5085271;28;20059;-74
2022/05/31 11:34:48;;;;;;;0.00;0.00;;;22.80;87.30;;;;;;5083726;28;20024;-74
2022/05/31 11:37:40;;;;;;;0.52;0.52;;;22.80;84.90;;;;;;5081593;28;20028;-75
2022/05/31 11:40:15;;;;;;;0.30;0.20;;;22.60;87.70;;;;;;5088435;28;20020;-74
2022/05/31 11:43:06;;;;;;;0.00;0.00;;;22.50;87.90;;;;;;5085856;28;20020;-74
2022/05/31 11:46:02;;;;;;;0.00;0.00;;;22.30;90.10;;;;;;5084213;28;20032;-74
2022/05/31 11:49:01;;;;;;;0.00;0.00;;;22.00;91.80;;;;;;5083157;28;20032;-74
2022/05/31 11:51:46;;;;;;;0.10;0.10;;;22.20;90.90;;;;;;5083553;28;20047;-75
2022/05/31 11:54:32;;;;;;;0.00;0.00;;;22.00;91.60;;;;;;5081831;28;20036;-76
2022/05/31 11:57:15;;;;;;;0.00;0.00;;;22.10;92.40;;;;;;5082532;28;20036;-74
2022/05/31 12:00:02;;;;;;;0.73;0.32;;;22.30;89.90;;;;;;5082610;28;20382;-73
2022/05/31 12:02:38;;;;;;;0.00;0.00;;;22.50;89.40;;;;;;5080519;28;20053;-74
2022/05/31 12:05:25;;;;;;;0.00;0.00;;;22.60;89.10;;;;;;5076960;28;20036;-75
2022/05/31 12:07:56;;;;;;;0.90;0.90;;;22.50;83.30;;;;;;5088331;28;20476;-75
2022/05/31 12:10:28;;;;;;;0.00;0.00;;;22.30;85.00;;;;;;5086277;28;20555;-72
2022/05/31 12:13:07;;;;;;;0.00;0.00;;;21.80;88.20;;;;;;5084432;28;20036;-75
2022/05/31 12:15:36;;;;;;;0.00;0.00;;;21.80;91.40;;;;;;5086586;28;20475;-74
2022/05/31 12:18:06;;;;;;;0.00;0.00;;;22.00;90.20;;;;;;5085582;28;20035;-73
2022/05/31 12:20:38;;;;;;;0.10;0.10;;;22.10;91.20;;;;;;5082996;28;20103;-74
2022/05/31 12:23:14;;;;;;;0.00;0.00;;;22.10;90.70;;;;;;5082018;28;20532;-74
2022/05/31 12:25:55;;;;;;;0.22;0.22;;;21.90;91.70;;;;;;5079964;28;20462;-74
2022/05/31 12:28:23;;;;;;;0.00;0.00;;;21.90;90.50;;;;;;5079195;28;20128;-75
2022/05/31 12:30:56;;;;;;;0.03;0.03;;;22.00;90.10;;;;;;5079579;28;20406;-73
2022/05/31 12:33:44;;;;;;;0.00;0.00;;;22.00;87.80;;;;;;5081682;28;20448;-73
2022/05/31 12:36:19;;;;;;;0.00;0.00;;;21.90;89.70;;;;;;5084221;28;20020;-74
2022/05/31 12:38:54;;;;;;;0.15;0.15;;;21.70;92.60;;;;;;5086144;28;20149;-73
2022/05/31 12:41:42;;;;;;;0.00;0.00;;;21.80;91.00;;;;;;5092297;28;20024;-73
2022/05/31 12:44:13;;;;;;;0.00;0.00;;;21.50;92.40;;;;;;5089512;28;20025;-74
2022/05/31 12:46:40;;;;;;;0.20;0.20;;;21.30;94.30;;;;;;5095614;28;20046;-75
2022/05/31 12:49:28;;;;;;;0.00;0.00;;;21.20;96.70;;;;;;5090631;28;20055;-74
2022/05/31 12:54:55;;;;;;;0.00;0.00;;;21.10;96.30;;;;;;5091921;28;20396;-74
2022/05/31 13:00:38;;;;;;;2.53;0.73;;;21.20;94.70;;;;;;5089461;28;20039;-73
2022/05/31 13:03:26;;;;;;;0.00;0.00;;;21.20;97.60;;;;;;5090841;28;20127;-74
2022/05/31 13:06:02;;;;;;;0.00;0.00;;;21.20;96.90;;;;;;5091686;28;20042;-74
2022/05/31 13:08:52;;;;;;;1.17;0.93;;;21.40;96.20;;;;;;5093129;28;20025;-73
2022/05/31 13:20:33;;;;;;;1.23;0.63;;;20.40;99.90;;;;;;5039509;28;20044;-73
2022/05/31 13:23:22;;;;;;;0.03;0.03;;;20.20;99.90;;;;;;5085442;28;20393;-75
2022/05/31 13:26:01;;;;;;;1.30;1.20;;;20.10;99.90;;;;;;5096640;28;20533;-74
2022/05/31 13:28:57;;;;;;;0.40;0.40;;;20.10;99.90;;;;;;5088783;28;20024;-74
2022/05/31 13:31:27;;;;;;;1.38;1.27;;;20.00;99.90;;;;;;5084887;28;20476;-74
2022/05/31 13:34:06;;;;;;;0.52;0.52;;;19.90;99.90;;;;;;5090124;28;20032;-74
2022/05/31 13:36:45;;;;;;;2.95;1.13;;;19.90;99.90;;;;;;5090494;28;20031;-74
2022/05/31 13:39:14;;;;;;;0.35;0.15;;;19.70;99.90;;;;;;5092651;28;20356;-74
2022/05/31 13:41:51;;;;;;;9.02;8.15;;;19.60;99.90;;;;;;5089813;28;20024;-74
2022/05/31 13:44:39;;;;;;;5.18;2.85;;;19.30;99.90;;;;;;5091499;28;20104;-74
2022/05/31 13:47:08;;;;;;;1.35;0.75;;;18.30;99.90;;;;;;5090866;28;20028;-74
2022/05/31 13:49:43;;;;;;;4.22;1.30;;;17.60;99.90;;;;;;5084642;28;20027;-74
2022/05/31 13:52:27;;;;;;;0.75;0.75;;;16.60;99.90;;;;;;5082142;28;20066;-72